Time;durP1;ratioP1;P1;durP2;ratioP2;P2;SDS_P1;SDS_P2;PMS_P1;PMS_P2;Temp;Humidity;BMP_temperature;BMP_pressure;BME280_temperature;BME280_humidity;BME280_pressure;Samples;Min_cycle;Max_cycle;Signal;HPM_P1;HPM_P2
2023/04/01 00:00:22;;;;;;;4.17;1.63;;;11.60;99.90;;;;;;5027488;28;20202;-72
2023/04/01 00:02:47;;;;;;;3.90;2.07;;;11.50;99.90;;;;;;5025472;28;20492;-73
2023/04/01 00:05:13;;;;;;;2.10;1.30;;;11.50;99.90;;;;;;5025674;28;20203;-72
2023/04/01 00:07:40;;;;;;;3.50;1.50;;;11.40;99.90;;;;;;5027686;28;20208;-73
2023/04/01 00:10:10;;;;;;;5.63;1.77;;;11.50;99.90;;;;;;5025731;28;20802;-72
2023/04/01 00:12:37;;;;;;;2.50;1.50;;;11.50;99.90;;;;;;5024611;28;20451;-72
2023/04/01 00:15:05;;;;;;;5.63;1.70;;;11.40;99.90;;;;;;5026895;28;20992;-73
2023/04/01 00:17:30;;;;;;;4.60;1.60;;;11.50;99.90;;;;;;5027760;28;20892;-72
2023/04/01 00:19:56;;;;;;;4.33;2.07;;;11.40;99.90;;;;;;5024479;28;20530;-72
2023/04/01 00:22:23;;;;;;;5.00;1.50;;;11.40;99.90;;;;;;5025740;28;20184;-73
2023/04/01 00:24:49;;;;;;;4.63;1.63;;;11.50;99.90;;;;;;5029879;28;20457;-73
2023/04/01 00:27:15;;;;;;;2.77;1.70;;;11.50;99.90;;;;;;5029739;28;20467;-73
2023/04/01 00:29:45;;;;;;;5.37;2.00;;;11.50;99.90;;;;;;5026106;28;20207;-72
2023/04/01 00:32:11;;;;;;;6.93;1.90;;;11.60;99.90;;;;;;5025448;28;20996;-72
2023/04/01 00:34:37;;;;;;;2.50;1.33;;;11.50;99.90;;;;;;5024989;28;20450;-73
2023/04/01 00:37:03;;;;;;;4.47;1.43;;;11.50;99.90;;;;;;5026898;28;21216;-72
2023/04/01 00:39:31;;;;;;;8.57;1.90;;;11.60;99.90;;;;;;5030037;28;20431;-73
2023/04/01 00:41:57;;;;;;;2.80;1.50;;;11.60;99.90;;;;;;5025294;28;20481;-73
2023/04/01 00:44:26;;;;;;;3.50;1.70;;;11.70;99.90;;;;;;5023272;28;20464;-73
2023/04/01 00:46:52;;;;;;;6.30;1.70;;;11.60;99.90;;;;;;5025359;28;20542;-72
2023/04/01 00:49:20;;;;;;;3.40;1.50;;;11.70;99.90;;;;;;5027433;28;20446;-72
2023/04/01 00:51:48;;;;;;;6.37;1.50;;;11.70;99.90;;;;;;5026727;28;20458;-72
2023/04/01 00:54:15;;;;;;;4.90;1.40;;;11.70;99.90;;;;;;5025783;28;20891;-72
2023/04/01 00:56:48;;;;;;;12.23;2.33;;;11.60;99.90;;;;;;5026540;28;20467;-72
2023/04/01 00:59:18;;;;;;;4.40;1.83;;;11.70;99.90;;;;;;5023073;28;20538;-72
2023/04/01 01:01:44;;;;;;;3.87;1.60;;;11.60;99.90;;;;;;5021519;28;20443;-72
2023/04/01 01:04:45;;;;;;;4.50;1.73;;;11.70;99.90;;;;;;5028568;28;21703;-72
2023/04/01 01:07:39;;;;;;;3.50;1.63;;;11.60;99.90;;;;;;5007960;28;20213;-73
2023/04/01 01:10:33;;;;;;;6.27;1.70;;;11.50;99.90;;;;;;5027297;28;20430;-73
2023/04/01 01:13:19;;;;;;;6.30;1.73;;;11.50;99.90;;;;;;5026730;28;20431;-73
2023/04/01 01:15:55;;;;;;;1.80;1.23;;;11.50;99.90;;;;;;5026079;28;20837;-73
2023/04/01 01:18:39;;;;;;;3.83;1.63;;;11.50;99.90;;;;;;5025770;28;20457;-73
2023/04/01 01:21:27;;;;;;;7.07;1.93;;;11.40;99.90;;;;;;5025507;28;20507;-73
2023/04/01 01:24:07;;;;;;;4.80;1.60;;;11.40;99.90;;;;;;5008758;28;21875;-72
2023/04/01 01:27:07;;;;;;;2.50;1.43;;;11.40;99.90;;;;;;5021058;28;20450;-73
2023/04/01 01:29:58;;;;;;;4.33;1.70;;;11.50;99.90;;;;;;5028497;28;20462;-72
2023/04/01 01:32:43;;;;;;;5.17;1.73;;;11.40;99.90;;;;;;5022071;28;20435;-72
2023/04/01 01:35:28;;;;;;;5.40;2.30;;;11.40;99.90;;;;;;5029944;28;20513;-72
2023/04/01 01:38:02;;;;;;;2.60;1.90;;;11.40;99.90;;;;;;5031226;28;20990;-72
2023/04/01 01:40:30;;;;;;;2.73;1.40;;;11.40;99.90;;;;;;5028708;28;20433;-71
2023/04/01 01:43:00;;;;;;;7.00;1.73;;;11.30;99.90;;;;;;5021552;28;20431;-71
2023/04/01 01:45:27;;;;;;;3.80;1.33;;;11.40;99.90;;;;;;5026994;28;20439;-71
2023/04/01 01:47:54;;;;;;;6.20;1.70;;;11.40;99.90;;;;;;5032413;28;20462;-71
2023/04/01 01:50:22;;;;;;;2.33;1.67;;;11.30;99.90;;;;;;5029577;28;20591;-71
2023/04/01 01:52:47;;;;;;;3.40;1.50;;;11.40;99.90;;;;;;5026599;28;20442;-71
2023/04/01 01:55:31;;;;;;;2.93;1.30;;;11.20;99.90;;;;;;5030124;28;20458;-74
2023/04/01 01:58:07;;;;;;;4.47;1.53;;;11.30;99.90;;;;;;5025369;28;20215;-72
2023/04/01 02:00:34;;;;;;;2.03;1.40;;;11.30;99.90;;;;;;5030678;28;20494;-72
2023/04/01 02:03:00;;;;;;;4.13;1.43;;;11.30;99.90;;;;;;5025219;28;20431;-72
2023/04/01 02:05:30;;;;;;;4.63;1.47;;;11.10;99.90;;;;;;5029363;28;20443;-74
2023/04/01 02:08:20;;;;;;;2.03;1.30;;;11.10;99.90;;;;;;5029731;28;20539;-74
2023/04/01 02:10:55;;;;;;;4.00;1.20;;;11.10;99.90;;;;;;5033520;28;20430;-72
2023/04/01 02:13:42;;;;;;;1.60;1.10;;;11.10;99.90;;;;;;5033125;28;20491;-73
2023/04/01 02:16:25;;;;;;;1.80;1.10;;;11.10;99.90;;;;;;5034818;28;20470;-73
2023/04/01 02:18:54;;;;;;;2.33;1.27;;;11.10;99.90;;;;;;5032090;28;20958;-73
2023/04/01 02:21:22;;;;;;;2.97;1.13;;;11.20;99.90;;;;;;5031394;28;20466;-73
2023/04/01 02:23:50;;;;;;;1.97;1.20;;;11.10;99.90;;;;;;5028250;28;20453;-72
2023/04/01 02:26:16;;;;;;;1.80;1.20;;;11.10;99.90;;;;;;5037808;28;20449;-72
2023/04/01 02:28:44;;;;;;;1.60;1.00;;;11.00;99.90;;;;;;5031503;28;20449;-73
2023/04/01 02:31:11;;;;;;;1.60;1.10;;;11.00;99.90;;;;;;5028903;28;20438;-73
2023/04/01 02:33:38;;;;;;;1.70;1.13;;;11.10;99.90;;;;;;5029109;28;20528;-72
2023/04/01 02:36:05;;;;;;;2.37;1.27;;;11.00;99.90;;;;;;5031626;28;20536;-72
2023/04/01 02:38:31;;;;;;;2.83;1.20;;;11.10;99.90;;;;;;5028084;28;20694;-72
2023/04/01 02:40:59;;;;;;;2.57;1.30;;;11.00;99.90;;;;;;5029053;28;20533;-72
2023/04/01 02:43:24;;;;;;;3.13;1.43;;;11.00;99.90;;;;;;5026762;28;20188;-72
2023/04/01 02:45:50;;;;;;;1.80;1.07;;;11.00;99.90;;;;;;5033562;28;20442;-72
2023/04/01 02:48:16;;;;;;;2.87;1.13;;;11.00;99.90;;;;;;5031570;28;20298;-73
2023/04/01 02:50:41;;;;;;;4.23;1.37;;;11.10;99.90;;;;;;5035117;28;20776;-72
2023/04/01 02:53:07;;;;;;;1.90;1.20;;;11.00;99.90;;;;;;5033558;28;20246;-72
2023/04/01 02:55:33;;;;;;;4.90;1.40;;;11.00;99.90;;;;;;5029272;28;20204;-72
2023/04/01 02:57:59;;;;;;;1.70;1.20;;;10.90;99.90;;;;;;5025967;28;20229;-72
2023/04/01 03:00:25;;;;;;;2.73;1.30;;;11.00;99.90;;;;;;5029313;28;20545;-72
2023/04/01 03:02:51;;;;;;;1.83;1.13;;;11.00;99.90;;;;;;5029184;28;20430;-72
2023/04/01 03:05:17;;;;;;;3.50;1.87;;;10.90;99.90;;;;;;5032001;28;20450;-71
2023/04/01 03:07:43;;;;;;;2.97;1.30;;;10.80;99.90;;;;;;5031473;28;20463;-72
2023/04/01 03:10:09;;;;;;;3.17;1.20;;;10.80;99.90;;;;;;5031603;28;21462;-72
2023/04/01 03:12:35;;;;;;;2.83;1.10;;;11.00;99.90;;;;;;5030058;28;20447;-71
2023/04/01 03:15:01;;;;;;;1.43;1.00;;;11.00;99.90;;;;;;5031741;28;20455;-72
2023/04/01 03:17:26;;;;;;;2.83;1.10;;;11.10;99.90;;;;;;5029101;28;20590;-72
2023/04/01 03:19:52;;;;;;;2.67;1.20;;;11.00;99.90;;;;;;5029191;28;20276;-72
2023/04/01 03:22:20;;;;;;;2.00;1.17;;;11.00;99.90;;;;;;5029797;28;20190;-71
2023/04/01 03:24:50;;;;;;;1.77;1.30;;;11.00;99.90;;;;;;5029659;28;20185;-72
2023/04/01 03:27:15;;;;;;;2.07;1.30;;;10.80;99.90;;;;;;5034430;28;20825;-72
2023/04/01 03:29:41;;;;;;;3.97;1.70;;;10.90;99.90;;;;;;5030994;28;20454;-72
2023/04/01 03:32:07;;;;;;;2.20;1.37;;;11.00;99.90;;;;;;5029673;28;20252;-72
2023/04/01 03:34:32;;;;;;;2.10;1.33;;;11.00;99.90;;;;;;5030300;28;20179;-72
2023/04/01 03:36:58;;;;;;;3.00;1.20;;;11.10;99.90;;;;;;5033905;28;20311;-71
2023/04/01 03:39:24;;;;;;;3.37;1.60;;;11.00;99.90;;;;;;5029979;28;20186;-72
2023/04/01 03:41:49;;;;;;;2.47;1.20;;;11.00;99.90;;;;;;5028370;28;20776;-72
2023/04/01 03:44:15;;;;;;;3.97;1.50;;;11.00;99.90;;;;;;5026074;28;20292;-74
2023/04/01 03:46:40;;;;;;;1.80;1.10;;;11.10;99.90;;;;;;5027997;28;20680;-74
2023/04/01 03:49:11;;;;;;;1.83;1.30;;;11.10;99.90;;;;;;5026472;28;20189;-72
2023/04/01 03:51:38;;;;;;;4.30;1.20;;;11.10;99.90;;;;;;5028109;28;20533;-73
2023/04/01 03:54:04;;;;;;;2.23;1.20;;;11.10;99.90;;;;;;5028762;28;20442;-73
2023/04/01 03:56:30;;;;;;;2.67;1.47;;;11.10;99.90;;;;;;5030390;28;20470;-73
2023/04/01 03:58:55;;;;;;;3.27;1.60;;;11.00;99.90;;;;;;5025056;28;20439;-73
2023/04/01 04:01:22;;;;;;;1.80;1.20;;;11.10;99.90;;;;;;5028959;28;20215;-72
2023/04/01 04:03:49;;;;;;;3.57;1.33;;;11.10;99.90;;;;;;5026041;28;20215;-72
2023/04/01 04:06:16;;;;;;;2.70;1.60;;;11.10;99.90;;;;;;5023770;28;20442;-73
2023/04/01 04:08:42;;;;;;;2.77;1.40;;;11.10;99.90;;;;;;5035004;28;20465;-73
2023/04/01 04:11:08;;;;;;;6.00;2.00;;;11.00;99.90;;;;;;5025706;28;20811;-73
2023/04/01 04:13:34;;;;;;;3.57;1.37;;;11.10;99.90;;;;;;5028870;28;20250;-73
2023/04/01 04:15:59;;;;;;;2.60;1.40;;;11.20;99.90;;;;;;5028034;28;20496;-73
2023/04/01 04:18:25;;;;;;;3.90;1.57;;;11.10;99.90;;;;;;5028782;28;20548;-73
2023/04/01 04:20:51;;;;;;;4.50;1.90;;;11.10;99.90;;;;;;5029762;28;20215;-73
2023/04/01 04:23:17;;;;;;;8.77;1.73;;;11.10;99.90;;;;;;5027953;28;20233;-72
2023/04/01 04:25:58;;;;;;;4.93;1.90;;;11.10;99.90;;;;;;5028934;28;20255;-72
2023/04/01 04:28:26;;;;;;;5.13;1.70;;;11.00;99.90;;;;;;5030118;28;20462;-71
2023/04/01 04:30:52;;;;;;;2.53;1.30;;;11.10;99.90;;;;;;5028958;28;20454;-72
2023/04/01 04:33:18;;;;;;;3.50;1.83;;;11.10;99.90;;;;;;5027425;28;20509;-72
2023/04/01 04:35:43;;;;;;;3.53;1.40;;;11.20;99.90;;;;;;5032169;28;20810;-72
2023/04/01 04:38:09;;;;;;;4.90;1.97;;;11.20;99.90;;;;;;5031833;28;20196;-71
2023/04/01 04:40:37;;;;;;;3.47;1.50;;;11.20;99.90;;;;;;5027321;28;20200;-72
2023/04/01 04:43:03;;;;;;;4.50;1.50;;;11.20;99.90;;;;;;5024535;28;20272;-73
2023/04/01 04:45:28;;;;;;;3.93;1.90;;;11.10;99.90;;;;;;5031260;28;20546;-72
2023/04/01 04:47:54;;;;;;;5.50;1.70;;;11.20;99.90;;;;;;5031175;28;20212;-73
2023/04/01 04:50:20;;;;;;;3.73;1.40;;;11.30;99.90;;;;;;5028194;28;20200;-73
2023/04/01 04:52:45;;;;;;;5.43;1.90;;;11.30;99.90;;;;;;5029922;28;20226;-71
2023/04/01 04:55:11;;;;;;;4.73;1.60;;;11.30;99.90;;;;;;5028118;28;20227;-72
2023/04/01 04:57:36;;;;;;;3.13;1.50;;;11.30;99.90;;;;;;5028055;28;20291;-71
2023/04/01 05:00:03;;;;;;;5.17;2.00;;;11.30;99.90;;;;;;5023776;28;20706;-72
2023/04/01 05:02:28;;;;;;;7.50;1.80;;;11.30;99.90;;;;;;5026874;28;20212;-72
2023/04/01 05:04:54;;;;;;;3.90;1.60;;;11.30;99.90;;;;;;5025364;28;21051;-72
2023/04/01 05:07:20;;;;;;;2.97;1.50;;;11.30;99.90;;;;;;5030863;28;20239;-72
2023/04/01 05:09:46;;;;;;;2.80;1.40;;;11.30;99.90;;;;;;5026347;28;20184;-72
2023/04/01 05:12:12;;;;;;;4.67;1.90;;;11.30;99.90;;;;;;5023218;28;21467;-72
2023/04/01 05:14:38;;;;;;;3.60;1.37;;;11.30;99.90;;;;;;5027969;28;20808;-72
2023/04/01 05:17:04;;;;;;;3.90;2.17;;;11.30;99.90;;;;;;5026595;28;20454;-72
2023/04/01 05:19:29;;;;;;;3.97;1.60;;;11.20;99.90;;;;;;5026517;28;21189;-72
2023/04/01 05:21:55;;;;;;;3.30;1.43;;;11.30;99.90;;;;;;5026195;28;20282;-74
2023/04/01 05:24:20;;;;;;;6.00;1.80;;;11.20;99.90;;;;;;5024455;28;20184;-73
2023/04/01 05:26:46;;;;;;;5.77;1.40;;;11.20;99.90;;;;;;5026711;28;20277;-72
2023/04/01 05:29:12;;;;;;;4.00;1.40;;;11.30;99.90;;;;;;5026870;28;20299;-73
2023/04/01 05:31:37;;;;;;;4.00;1.50;;;11.20;99.90;;;;;;5025282;28;20203;-72
2023/04/01 05:34:03;;;;;;;2.63;1.27;;;11.20;99.90;;;;;;5022576;28;20779;-72
2023/04/01 05:36:28;;;;;;;7.40;1.30;;;11.20;99.90;;;;;;5033726;28;20579;-72
2023/04/01 05:38:57;;;;;;;1.93;1.20;;;11.10;99.90;;;;;;5026722;28;20262;-72
2023/04/01 05:41:22;;;;;;;2.40;1.20;;;11.20;99.90;;;;;;5034355;28;20179;-73
2023/04/01 05:43:48;;;;;;;1.97;1.20;;;11.20;99.90;;;;;;5030203;28;20951;-72
2023/04/01 05:46:13;;;;;;;2.70;1.20;;;11.00;99.90;;;;;;5034453;28;20196;-73
2023/04/01 05:48:39;;;;;;;2.80;1.13;;;10.90;99.90;;;;;;5032252;28;20180;-73
2023/04/01 05:51:05;;;;;;;2.37;1.10;;;10.80;99.90;;;;;;5027080;28;20185;-72
2023/04/01 05:53:30;;;;;;;5.57;1.27;;;10.80;99.90;;;;;;5032417;28;20270;-71
2023/04/01 05:55:56;;;;;;;5.20;1.33;;;10.80;99.90;;;;;;5029666;28;20207;-72
2023/04/01 05:58:22;;;;;;;2.70;1.27;;;10.70;99.90;;;;;;5032533;28;20314;-72
2023/04/01 06:00:47;;;;;;;2.70;1.30;;;10.60;99.90;;;;;;5034010;28;20251;-72
2023/04/01 06:03:13;;;;;;;2.40;1.10;;;10.70;99.90;;;;;;5028222;28;20712;-72
2023/04/01 06:05:41;;;;;;;4.47;1.70;;;10.60;99.90;;;;;;5029857;28;20679;-72
2023/04/01 06:08:16;;;;;;;4.23;1.40;;;10.60;99.90;;;;;;5029939;28;20211;-72
2023/04/01 06:10:50;;;;;;;3.27;1.30;;;10.50;99.90;;;;;;5028331;28;20495;-72
2023/04/01 06:13:37;;;;;;;2.17;1.10;;;10.50;99.90;;;;;;5037557;28;20461;-72
2023/04/01 06:16:30;;;;;;;2.23;1.40;;;10.50;99.90;;;;;;5028410;28;20601;-72
2023/04/01 06:19:02;;;;;;;3.10;1.67;;;10.50;99.90;;;;;;5032613;28;20438;-73
2023/04/01 06:21:47;;;;;;;3.90;1.30;;;10.40;99.90;;;;;;5035215;28;20914;-73
2023/04/01 06:24:37;;;;;;;2.20;1.30;;;10.50;99.90;;;;;;5026877;28;20426;-73
2023/04/01 06:27:30;;;;;;;3.40;1.30;;;10.50;99.90;;;;;;5032761;28;20457;-73
2023/04/01 06:30:04;;;;;;;6.47;1.80;;;10.40;99.90;;;;;;5028660;28;20818;-73
2023/04/01 06:32:43;;;;;;;2.90;1.60;;;10.50;99.90;;;;;;5033560;28;20438;-72
2023/04/01 06:35:21;;;;;;;4.20;1.97;;;10.50;99.90;;;;;;5030022;28;20992;-72
2023/04/01 06:38:12;;;;;;;2.70;1.10;;;10.50;99.90;;;;;;5031857;28;20658;-74
2023/04/01 06:40:40;;;;;;;2.87;1.40;;;10.60;99.90;;;;;;5030066;28;20435;-72
2023/04/01 06:43:58;;;;;;;2.83;1.20;;;10.60;99.90;;;;;;5032812;28;20431;-73
2023/04/01 06:46:47;;;;;;;1.90;1.20;;;10.70;99.90;;;;;;5030282;28;20641;-75
2023/04/01 06:49:51;;;;;;;3.10;1.37;;;10.50;99.90;;;;;;5029938;28;20427;-74
2023/04/01 06:52:26;;;;;;;3.43;1.30;;;10.60;99.90;;;;;;5035103;28;20565;-74
2023/04/01 06:55:01;;;;;;;3.53;1.60;;;10.60;99.90;;;;;;5033578;28;20410;-74
2023/04/01 06:57:35;;;;;;;5.93;1.70;;;10.60;99.90;;;;;;5035824;28;20933;-75
2023/04/01 07:00:10;;;;;;;3.80;1.43;;;10.70;99.90;;;;;;5027693;28;20492;-73
2023/04/01 07:02:44;;;;;;;3.33;1.80;;;10.70;99.90;;;;;;5031789;28;20917;-73
2023/04/01 07:05:12;;;;;;;2.93;1.50;;;10.70;99.90;;;;;;5029022;28;20435;-72
2023/04/01 07:07:43;;;;;;;2.67;1.20;;;10.60;99.90;;;;;;5027485;28;20451;-71
2023/04/01 07:10:27;;;;;;;4.10;1.60;;;10.60;99.90;;;;;;5029463;28;20557;-72
2023/04/01 07:12:58;;;;;;;2.33;1.30;;;10.60;99.90;;;;;;5038152;28;20493;-73
2023/04/01 07:15:45;;;;;;;3.60;1.87;;;10.60;99.90;;;;;;5029431;28;20481;-72
2023/04/01 07:18:23;;;;;;;3.90;1.70;;;10.60;99.90;;;;;;5028963;28;20508;-72
2023/04/01 07:20:51;;;;;;;3.93;1.70;;;10.70;99.90;;;;;;5030584;28;20446;-73
2023/04/01 07:23:36;;;;;;;3.30;1.67;;;10.60;99.90;;;;;;5023538;28;20439;-72
2023/04/01 07:26:23;;;;;;;2.60;1.30;;;10.60;99.90;;;;;;5026474;28;20434;-72
2023/04/01 07:28:51;;;;;;;4.13;1.27;;;10.50;99.90;;;;;;5031989;28;20437;-71
2023/04/01 07:31:46;;;;;;;4.10;1.90;;;10.50;99.90;;;;;;5032423;28;20453;-72
2023/04/01 07:34:25;;;;;;;3.23;1.40;;;10.60;99.90;;;;;;5023063;28;20884;-74
2023/04/01 07:37:15;;;;;;;6.27;2.00;;;10.50;99.90;;;;;;5029777;28;20540;-74
2023/04/01 07:40:01;;;;;;;5.73;1.40;;;10.50;99.90;;;;;;5032017;28;20499;-73
2023/04/01 07:42:39;;;;;;;3.60;1.60;;;10.40;99.90;;;;;;5031743;28;20518;-73
2023/04/01 07:45:38;;;;;;;4.87;2.10;;;10.50;99.90;;;;;;5030486;28;20580;-73
2023/04/01 07:48:37;;;;;;;4.03;2.23;;;10.40;99.90;;;;;;5028445;28;20455;-73
2023/04/01 07:51:26;;;;;;;3.00;2.00;;;10.30;99.90;;;;;;5029098;28;20439;-74
2023/04/01 07:54:03;;;;;;;2.53;1.53;;;10.30;99.90;;;;;;5028112;28;21076;-73
2023/04/01 07:56:45;;;;;;;3.00;1.60;;;10.30;99.90;;;;;;5033963;28;21182;-74
2023/04/01 07:59:28;;;;;;;4.20;1.60;;;10.40;99.90;;;;;;5024123;28;20558;-74
2023/04/01 08:02:29;;;;;;;7.90;2.27;;;10.30;99.90;;;;;;5025030;28;20439;-74
2023/04/01 08:05:09;;;;;;;3.67;1.60;;;10.40;99.90;;;;;;5023604;28;20537;-74
2023/04/01 08:08:02;;;;;;;4.80;1.63;;;10.40;99.90;;;;;;5025636;28;20839;-74
2023/04/01 08:10:32;;;;;;;3.43;1.60;;;10.50;99.90;;;;;;5028971;28;20431;-74
2023/04/01 08:13:24;;;;;;;2.50;1.50;;;10.50;99.90;;;;;;5032351;28;20974;-74
2023/04/01 08:15:57;;;;;;;2.97;1.30;;;10.60;99.90;;;;;;5022520;28;20476;-73
2023/04/01 08:18:57;;;;;;;3.80;1.97;;;10.70;99.90;;;;;;5028836;28;20462;-76
2023/04/01 08:21:27;;;;;;;3.17;1.40;;;10.80;99.90;;;;;;5028317;28;20459;-75
2023/04/01 08:23:57;;;;;;;8.03;2.67;;;10.90;99.90;;;;;;5025340;28;20811;-75
2023/04/01 08:26:26;;;;;;;2.70;1.30;;;10.90;99.90;;;;;;5030045;28;20470;-75
2023/04/01 08:28:58;;;;;;;3.93;1.97;;;10.80;99.90;;;;;;5030359;28;20803;-75
2023/04/01 08:31:51;;;;;;;2.73;1.30;;;10.80;99.90;;;;;;5027578;28;20492;-74
2023/04/01 08:34:22;;;;;;;2.70;1.60;;;10.90;99.90;;;;;;5029611;28;20513;-73
2023/04/01 08:36:57;;;;;;;5.00;1.60;;;10.90;99.90;;;;;;5025967;28;20478;-73
2023/04/01 08:39:38;;;;;;;5.80;2.00;;;10.90;99.90;;;;;;5027400;28;20442;-74
2023/04/01 08:42:25;;;;;;;3.90;1.77;;;10.90;99.90;;;;;;5027931;28;20507;-73
2023/04/01 08:45:26;;;;;;;3.53;1.33;;;10.90;99.90;;;;;;5026818;28;20435;-74
2023/04/01 08:48:20;;;;;;;5.03;1.60;;;10.90;99.90;;;;;;5031321;28;20451;-74
2023/04/01 08:51:20;;;;;;;3.90;1.63;;;11.00;99.90;;;;;;5027609;28;20435;-74
2023/04/01 08:54:07;;;;;;;2.10;1.40;;;11.00;99.90;;;;;;5027129;28;20506;-74
2023/04/01 08:57:19;;;;;;;4.23;1.33;;;11.00;99.90;;;;;;5028823;28;20924;-73
2023/04/01 08:59:57;;;;;;;3.30;1.33;;;11.10;99.90;;;;;;5026218;28;20532;-74
2023/04/01 09:02:33;;;;;;;2.20;1.37;;;11.20;99.90;;;;;;5028027;28;21469;-74
2023/04/01 09:05:22;;;;;;;4.83;1.47;;;11.30;99.90;;;;;;5027581;28;20431;-74
2023/04/01 09:08:25;;;;;;;6.57;1.93;;;11.30;99.90;;;;;;5030628;28;21359;-74
2023/04/01 09:11:04;;;;;;;3.37;1.60;;;11.20;99.90;;;;;;5026332;28;20507;-73
2023/04/01 09:13:55;;;;;;;3.00;1.20;;;11.10;99.90;;;;;;5026149;28;20565;-74
2023/04/01 09:17:17;;;;;;;2.90;1.40;;;11.20;99.90;;;;;;5023281;28;20575;-73
2023/04/01 09:20:30;;;;;;;4.47;1.87;;;11.20;99.90;;;;;;5029175;28;20952;-73
2023/04/01 09:23:14;;;;;;;3.20;1.90;;;11.10;99.90;;;;;;5016362;28;20473;-73
2023/04/01 09:26:08;;;;;;;3.10;1.40;;;11.10;99.90;;;;;;5034020;28;20499;-73
2023/04/01 09:28:43;;;;;;;4.27;1.60;;;11.20;99.90;;;;;;5025267;28;20501;-75
2023/04/01 09:31:19;;;;;;;3.80;1.43;;;11.20;99.90;;;;;;5025188;28;20546;-73
2023/04/01 09:34:22;;;;;;;3.17;1.67;;;11.20;99.90;;;;;;5023161;28;20443;-72
2023/04/01 09:37:21;;;;;;;2.27;1.40;;;11.20;99.90;;;;;;5028533;28;20485;-72
2023/04/01 09:40:08;;;;;;;3.03;1.33;;;11.20;99.90;;;;;;5035069;28;20453;-72
2023/04/01 09:42:46;;;;;;;2.43;1.37;;;11.10;99.90;;;;;;5023531;28;20450;-72
2023/04/01 09:45:25;;;;;;;4.50;1.30;;;11.10;99.90;;;;;;5023824;28;20438;-72
2023/04/01 09:48:03;;;;;;;2.73;1.40;;;11.10;99.90;;;;;;5027943;28;20463;-72
2023/04/01 09:50:43;;;;;;;4.07;1.50;;;11.00;99.90;;;;;;5018890;28;20443;-72
2023/04/01 09:53:29;;;;;;;3.10;1.40;;;11.00;99.90;;;;;;5025350;28;20418;-70
2023/04/01 09:55:57;;;;;;;2.07;1.30;;;11.10;99.90;;;;;;5025653;28;20765;-74
2023/04/01 09:58:38;;;;;;;2.47;1.30;;;11.10;99.90;;;;;;5022366;28;20483;-73
2023/04/01 10:01:09;;;;;;;2.90;1.43;;;11.10;99.90;;;;;;5025955;28;20443;-76
2023/04/01 10:03:51;;;;;;;2.63;1.53;;;11.30;99.90;;;;;;5022739;28;20443;-74
2023/04/01 10:06:51;;;;;;;3.03;1.23;;;11.20;99.90;;;;;;5023881;28;20434;-72
2023/04/01 10:09:17;;;;;;;4.47;1.50;;;11.00;99.90;;;;;;5024333;28;20442;-73
2023/04/01 10:12:15;;;;;;;3.23;1.50;;;11.00;99.90;;;;;;5029257;28;20447;-72
2023/04/01 10:15:05;;;;;;;3.13;1.50;;;11.00;99.90;;;;;;5028244;28;20245;-73
2023/04/01 10:18:08;;;;;;;3.80;1.30;;;10.90;99.90;;;;;;5030799;28;20676;-73
2023/04/01 10:21:19;;;;;;;3.07;1.43;;;10.90;99.90;;;;;;5031837;28;20452;-74
2023/04/01 10:23:47;;;;;;;3.10;1.40;;;10.90;99.90;;;;;;5028583;28;20490;-74
2023/04/01 10:26:51;;;;;;;2.20;1.50;;;11.00;99.90;;;;;;5033853;28;20431;-73
2023/04/01 10:29:53;;;;;;;3.07;1.70;;;11.00;99.90;;;;;;5026497;28;20500;-71
2023/04/01 10:33:06;;;;;;;2.00;1.23;;;11.00;99.90;;;;;;5019436;28;20434;-71
2023/04/01 10:36:10;;;;;;;2.30;1.33;;;11.00;99.90;;;;;;5024750;28;20851;-72
2023/04/01 10:39:04;;;;;;;1.80;1.40;;;11.00;99.90;;;;;;5027712;28;20461;-70
2023/04/01 10:42:17;;;;;;;3.17;1.67;;;11.00;99.90;;;;;;5027851;28;20438;-72
2023/04/01 10:45:03;;;;;;;3.50;1.40;;;11.10;99.90;;;;;;5026266;28;20682;-71
2023/04/01 10:48:02;;;;;;;5.53;1.40;;;11.00;99.90;;;;;;5021458;28;20644;-71
2023/04/01 10:50:46;;;;;;;2.63;1.50;;;11.00;99.90;;;;;;5021544;28;21294;-69
2023/04/01 10:53:40;;;;;;;2.57;1.40;;;11.00;99.90;;;;;;5025767;28;20955;-71
2023/04/01 10:56:39;;;;;;;1.90;1.30;;;11.10;99.90;;;;;;5021083;28;20466;-70
2023/04/01 10:59:24;;;;;;;2.60;1.60;;;11.20;99.90;;;;;;5030268;28;20488;-71
2023/04/01 11:02:01;;;;;;;4.50;2.83;;;11.10;99.90;;;;;;5026378;28;20453;-71
2023/04/01 11:05:05;;;;;;;3.60;1.20;;;11.00;99.90;;;;;;5029519;28;20520;-72
2023/04/01 11:07:52;;;;;;;2.97;1.47;;;11.10;99.90;;;;;;5018912;28;20454;-71
2023/04/01 11:10:32;;;;;;;4.50;1.50;;;11.10;99.90;;;;;;5026044;28;20856;-72
2023/04/01 11:13:13;;;;;;;3.40;1.20;;;11.10;99.90;;;;;;5022706;28;20434;-74
2023/04/01 11:15:54;;;;;;;5.17;1.73;;;11.10;99.90;;;;;;5023045;28;20463;-72
2023/04/01 11:18:42;;;;;;;2.60;1.60;;;11.30;99.90;;;;;;5021444;28;20457;-72
2023/04/01 11:21:24;;;;;;;5.10;1.63;;;11.30;99.90;;;;;;5020792;28;20438;-72
2023/04/01 11:24:37;;;;;;;3.80;1.63;;;11.20;99.90;;;;;;5023168;28;20525;-70
2023/04/01 11:27:37;;;;;;;2.33;1.10;;;11.10;99.90;;;;;;5029726;28;20533;-71
2023/04/01 11:30:25;;;;;;;2.40;1.50;;;11.20;99.90;;;;;;5025921;28;20900;-72
2023/04/01 11:33:25;;;;;;;2.90;1.27;;;11.00;99.90;;;;;;5026577;28;20456;-70
2023/04/01 11:36:25;;;;;;;4.67;2.30;;;11.00;99.90;;;;;;5025216;28;20488;-71
2023/04/01 11:39:13;;;;;;;1.57;1.10;;;11.10;99.90;;;;;;5023081;28;20449;-72
2023/04/01 11:42:00;;;;;;;3.00;1.50;;;11.00;99.90;;;;;;5018198;28;20442;-71
2023/04/01 11:44:30;;;;;;;3.40;1.50;;;11.00;99.90;;;;;;5026127;28;20473;-72
2023/04/01 11:47:39;;;;;;;3.83;1.63;;;11.20;99.90;;;;;;5023491;28;20462;-74
2023/04/01 11:50:11;;;;;;;2.77;1.20;;;11.20;99.90;;;;;;5018826;28;20899;-69
2023/04/01 11:52:58;;;;;;;2.33;1.20;;;11.20;99.90;;;;;;5020879;28;20878;-70
2023/04/01 11:55:28;;;;;;;2.57;1.20;;;11.20;99.90;;;;;;5024834;28;20462;-71
2023/04/01 11:58:12;;;;;;;1.73;1.17;;;11.30;99.90;;;;;;5022174;28;20465;-72
2023/04/01 12:01:03;;;;;;;2.00;1.10;;;11.30;99.90;;;;;;5020389;28;20470;-70
2023/04/01 12:03:47;;;;;;;1.90;1.33;;;11.30;99.90;;;;;;5024266;28;20522;-71
2023/04/01 12:06:23;;;;;;;1.80;1.20;;;11.20;99.90;;;;;;5024915;28;20434;-71
2023/04/01 12:08:56;;;;;;;1.80;1.10;;;11.30;99.90;;;;;;5028418;28;20433;-69
2023/04/01 12:11:44;;;;;;;3.00;1.60;;;11.10;99.90;;;;;;5022492;28;20446;-71
2023/04/01 12:14:14;;;;;;;1.93;1.17;;;11.00;99.90;;;;;;5028628;28;20536;-72
2023/04/01 12:17:18;;;;;;;1.70;1.10;;;11.10;99.90;;;;;;5024002;28;20461;-72
2023/04/01 12:19:48;;;;;;;2.10;1.50;;;11.00;99.90;;;;;;5020998;28;20474;-69
2023/04/01 12:22:45;;;;;;;1.80;1.10;;;10.80;99.90;;;;;;5019856;28;20446;-71
2023/04/01 12:25:37;;;;;;;1.97;1.30;;;10.80;99.90;;;;;;5020062;28;20434;-73
2023/04/01 12:28:18;;;;;;;3.30;1.23;;;10.90;99.90;;;;;;5024853;28;21068;-73
2023/04/01 12:30:51;;;;;;;3.27;1.30;;;10.90;99.90;;;;;;5023931;28;20877;-73
2023/04/01 12:33:37;;;;;;;2.00;1.20;;;11.00;99.90;;;;;;5028303;28;20449;-72
2023/04/01 12:36:36;;;;;;;3.57;1.50;;;10.90;99.90;;;;;;5023223;28;20524;-74
2023/04/01 12:39:39;;;;;;;4.13;1.57;;;10.90;99.90;;;;;;5023929;28;20773;-74
2023/04/01 12:42:31;;;;;;;1.60;1.10;;;10.90;99.90;;;;;;5022812;28;20435;-72
2023/04/01 12:45:26;;;;;;;2.43;1.27;;;11.00;99.90;;;;;;5021349;28;20445;-73
2023/04/01 12:48:10;;;;;;;2.33;1.20;;;11.10;99.90;;;;;;5024839;28;21067;-72
2023/04/01 12:51:11;;;;;;;2.43;1.30;;;11.10;99.90;;;;;;5026629;28;20448;-71
2023/04/01 12:54:14;;;;;;;2.00;1.23;;;11.10;99.90;;;;;;5019821;28;20488;-72
2023/04/01 12:56:59;;;;;;;2.13;1.20;;;11.10;99.90;;;;;;5019866;28;20494;-72
2023/04/01 12:59:54;;;;;;;2.83;1.43;;;11.00;99.90;;;;;;5024735;28;22045;-73
2023/04/01 13:02:28;;;;;;;1.60;1.00;;;11.00;99.90;;;;;;5024635;28;20435;-73
2023/04/01 13:05:24;;;;;;;2.10;1.30;;;11.00;99.90;;;;;;5020850;28;20441;-72
2023/04/01 13:08:16;;;;;;;2.53;1.20;;;11.00;99.90;;;;;;5022826;28;20492;-73
2023/04/01 13:11:10;;;;;;;2.57;1.47;;;11.00;99.90;;;;;;5027896;28;20458;-76
2023/04/01 13:13:53;;;;;;;2.40;1.30;;;11.10;99.90;;;;;;5028094;28;20428;-73
2023/04/01 13:16:47;;;;;;;4.47;1.67;;;11.30;99.90;;;;;;5022318;28;20215;-73
2023/04/01 13:19:25;;;;;;;1.80;1.10;;;11.50;99.90;;;;;;5020871;28;20425;-70
2023/04/01 13:21:59;;;;;;;1.80;1.10;;;11.30;99.90;;;;;;5021372;28;20172;-71
2023/04/01 13:24:53;;;;;;;1.97;1.20;;;11.40;99.90;;;;;;5023232;28;20435;-72
2023/04/01 13:27:23;;;;;;;1.93;1.13;;;11.40;99.90;;;;;;5027579;28;20588;-72
2023/04/01 13:29:48;;;;;;;2.63;1.13;;;11.30;99.90;;;;;;5026271;28;20500;-73
2023/04/01 13:32:45;;;;;;;2.20;1.20;;;11.40;99.90;;;;;;5026084;28;20811;-72
2023/04/01 13:35:44;;;;;;;1.50;1.00;;;11.40;99.90;;;;;;5026927;28;20257;-73
2023/04/01 13:38:27;;;;;;;2.63;1.73;;;11.30;99.90;;;;;;5026749;28;20462;-72
2023/04/01 13:41:11;;;;;;;3.70;1.20;;;11.30;99.90;;;;;;5028205;28;20434;-73
2023/04/01 13:43:42;;;;;;;1.70;1.10;;;11.30;99.90;;;;;;5030535;28;20434;-72